Terminal Aerodrome Forecast
Issued by NWS

Home | Current Version | Previous Version | Text Only | Print | Product List | Glossary Off
Versions: 1 2 3 4 5 6 7 8 9 10 11 12 13

000
FTUS43 KMPX 072300
TAFRNH
TAF
KRNH 072332Z 0800/0824 27003KT 6SM -SHRA VCTS OVC040CB
     FM080045 28005KT P6SM SCT070
     FM081500 30013G23KT P6SM SCT050=

USA.gov is the U.S. government's official web portal to all federal, state and local government web resources and services.